Time;durP1;ratioP1;P1;durP2;ratioP2;P2;SDS_P1;SDS_P2;PMS_P1;PMS_P2;Temp;Humidity;BMP_temperature;BMP_pressure;BME280_temperature;BME280_humidity;BME280_pressure;Samples;Min_cycle;Max_cycle;Signal;HPM_P1;HPM_P2
2023/10/03 00:01:30;;;;;;;31.58;18.02;;;;;;;;;;5078772;28;20477;-70
2023/10/03 00:03:56;;;;;;;36.70;20.85;;;;;;;;;;5077864;28;20074;-70
2023/10/03 00:06:22;;;;;;;36.97;19.77;;;;;;;;;;5079131;28;20184;-70
2023/10/03 00:08:48;;;;;;;31.83;19.85;;;;;;;;;;5078837;28;20547;-69
2023/10/03 00:11:22;;;;;;;33.25;19.33;;;;;;;;;;5079311;28;20032;-70
2023/10/03 00:13:50;;;;;;;36.97;19.75;;;;;;;;;;5078995;28;20035;-70
2023/10/03 00:16:17;;;;;;;34.85;19.70;;;;;;;;;;5078031;28;20371;-70
2023/10/03 00:18:43;;;;;;;34.20;19.50;;;;;;;;;;5079275;28;20027;-69
2023/10/03 00:21:09;;;;;;;33.95;18.95;;;;;;;;;;5078150;28;20911;-70
2023/10/03 00:23:35;;;;;;;32.30;18.88;;;;;;;;;;5078177;28;20057;-70
2023/10/03 00:26:02;;;;;;;32.58;19.30;;;;;;;;;;5078818;28;20039;-69
2023/10/03 00:28:33;;;;;;;36.83;20.63;;;;;;;;;;5078881;28;20028;-70
2023/10/03 00:31:00;;;;;;;39.10;19.15;;;;;;;;;;5076718;28;20032;-70
2023/10/03 00:33:26;;;;;;;39.40;20.73;;;;;;;;;;5078000;28;20138;-70
2023/10/03 00:35:55;;;;;;;35.30;20.27;;;;;;;;;;5077355;28;20088;-70
2023/10/03 00:38:22;;;;;;;37.88;20.55;;;;;;;;;;5077768;28;21607;-71
2023/10/03 00:40:49;;;;;;;38.92;19.63;;;;;;;;;;5078155;28;20024;-70
2023/10/03 00:43:15;;;;;;;38.50;19.17;;;;;;;;;;5078482;28;20659;-70
2023/10/03 00:45:42;;;;;;;35.80;20.70;;;;;;;;;;5078013;28;20012;-70
2023/10/03 00:48:08;;;;;;;34.10;19.77;;;;;;;;;;5078098;28;20138;-69
2023/10/03 00:50:35;;;;;;;37.53;19.80;;;;;;;;;;5077559;28;20031;-68
2023/10/03 00:53:09;;;;;;;38.75;20.23;;;;;;;;;;5077219;28;20031;-68
2023/10/03 00:55:35;;;;;;;32.28;18.58;;;;;;;;;;5077963;28;20139;-68
2023/10/03 01:00:39;;;;;;;34.75;19.75;;;;;;;;;;5077183;28;20152;-69
2023/10/03 01:03:09;;;;;;;36.08;19.98;;;;;;;;;;5077251;28;20040;-69
2023/10/03 01:05:35;;;;;;;37.30;20.38;;;;;;;;;;5077776;28;20482;-69
2023/10/03 01:08:03;;;;;;;33.85;19.05;;;;;;;;;;5077742;28;20574;-68
2023/10/03 01:10:32;;;;;;;33.83;19.73;;;;;;;;;;5076707;28;20048;-69
2023/10/03 01:13:16;;;;;;;31.75;18.20;;;;;;;;;;5078497;28;20035;-68
2023/10/03 01:15:43;;;;;;;34.78;19.10;;;;;;;;;;5076877;28;20034;-68
2023/10/03 01:18:13;;;;;;;33.58;19.17;;;;;;;;;;5077236;28;20023;-68
2023/10/03 01:20:42;;;;;;;33.65;18.52;;;;;;;;;;5061304;28;20050;-68
2023/10/03 01:23:10;;;;;;;34.20;20.02;;;;;;;;;;5078035;28;20066;-66
2023/10/03 01:25:42;;;;;;;34.75;20.38;;;;;;;;;;5077838;28;20536;-67
2023/10/03 01:28:08;;;;;;;33.67;19.42;;;;;;;;;;5078105;28;20032;-65
2023/10/03 01:30:36;;;;;;;34.00;18.63;;;;;;;;;;5076808;28;20042;-70
2023/10/03 01:33:02;;;;;;;37.38;20.98;;;;;;;;;;5076742;28;20035;-67
2023/10/03 01:35:28;;;;;;;35.63;19.40;;;;;;;;;;5077184;28;20054;-69
2023/10/03 01:37:54;;;;;;;37.10;20.65;;;;;;;;;;5076853;28;20047;-69
2023/10/03 01:40:23;;;;;;;38.47;20.42;;;;;;;;;;5077695;28;20390;-70
2023/10/03 01:42:49;;;;;;;33.53;19.90;;;;;;;;;;5076414;28;20027;-69
2023/10/03 01:45:17;;;;;;;35.00;20.48;;;;;;;;;;5077253;28;20039;-69
2023/10/03 01:47:49;;;;;;;35.95;20.35;;;;;;;;;;5077627;28;20024;-69
2023/10/03 01:50:17;;;;;;;39.42;20.20;;;;;;;;;;5077274;28;20137;-69
2023/10/03 01:52:43;;;;;;;38.20;19.88;;;;;;;;;;5076671;28;20161;-69
2023/10/03 01:55:13;;;;;;;38.90;20.73;;;;;;;;;;5074999;28;20037;-69
2023/10/03 01:57:40;;;;;;;36.75;20.63;;;;;;;;;;5074506;28;20169;-69
2023/10/03 02:00:20;;;;;;;34.53;18.92;;;;;;;;;;5075488;28;20047;-69
2023/10/03 02:02:47;;;;;;;36.38;18.63;;;;;;;;;;5075945;28;20336;-69
2023/10/03 02:05:15;;;;;;;35.90;19.25;;;;;;;;;;5075233;28;20059;-69
2023/10/03 02:07:41;;;;;;;36.95;20.67;;;;;;;;;;5075232;28;20028;-69
2023/10/03 02:10:08;;;;;;;37.45;20.35;;;;;;;;;;5076057;28;20059;-69
2023/10/03 02:12:34;;;;;;;36.63;19.88;;;;;;;;;;5076582;28;20023;-69
2023/10/03 02:15:07;;;;;;;35.92;18.90;;;;;;;;;;5076906;28;20027;-69
2023/10/03 02:17:34;;;;;;;33.28;19.10;;;;;;;;;;5077699;28;20043;-69
2023/10/03 02:20:01;;;;;;;35.15;19.15;;;;;;;;;;5077496;28;20082;-69
2023/10/03 02:22:27;;;;;;;33.30;17.15;;;;;;;;;;5076610;28;20040;-69
2023/10/03 02:24:55;;;;;;;33.72;18.13;;;;;;;;;;5077224;28;20031;-69
2023/10/03 02:27:25;;;;;;;34.13;18.48;;;;;;;;;;5076667;28;20036;-69
2023/10/03 02:29:51;;;;;;;33.33;18.20;;;;;;;;;;5076312;28;20032;-69
2023/10/03 02:32:18;;;;;;;29.35;16.55;;;;;;;;;;5076201;28;20043;-67
2023/10/03 02:34:44;;;;;;;36.38;18.23;;;;;;;;;;5076210;28;20016;-67
2023/10/03 02:37:12;;;;;;;37.08;18.13;;;;;;;;;;5076387;28;20133;-68
2023/10/03 02:39:39;;;;;;;34.38;19.52;;;;;;;;;;5076725;28;20390;-69
2023/10/03 02:42:06;;;;;;;36.72;18.25;;;;;;;;;;5076111;28;20036;-69
2023/10/03 02:44:32;;;;;;;36.08;17.48;;;;;;;;;;5077189;28;20024;-69
2023/10/03 02:46:58;;;;;;;32.78;17.85;;;;;;;;;;5075850;28;20035;-69
2023/10/03 02:49:25;;;;;;;34.00;16.90;;;;;;;;;;5076426;28;20032;-69
2023/10/03 02:51:51;;;;;;;34.13;17.55;;;;;;;;;;5076202;28;20598;-69
2023/10/03 02:54:17;;;;;;;31.40;16.63;;;;;;;;;;5076851;28;20584;-69
2023/10/03 02:56:43;;;;;;;34.22;17.00;;;;;;;;;;5080242;28;21588;-69
2023/10/03 02:59:09;;;;;;;31.08;16.95;;;;;;;;;;5078673;28;20032;-69
2023/10/03 03:01:37;;;;;;;32.60;16.67;;;;;;;;;;5080187;28;20044;-69
2023/10/03 03:04:04;;;;;;;28.67;14.90;;;;;;;;;;5079617;28;20993;-69
2023/10/03 03:06:31;;;;;;;33.88;16.63;;;;;;;;;;5080010;28;20061;-68
2023/10/03 03:08:58;;;;;;;33.75;16.55;;;;;;;;;;5078853;28;20036;-69
2023/10/03 03:11:28;;;;;;;35.88;16.20;;;;;;;;;;5079822;28;20028;-69
2023/10/03 03:13:54;;;;;;;31.17;16.67;;;;;;;;;;5069074;28;20031;-69
2023/10/03 03:16:20;;;;;;;33.70;17.50;;;;;;;;;;5079910;28;20117;-69
2023/10/03 03:18:49;;;;;;;29.67;15.43;;;;;;;;;;5059844;28;20032;-68
2023/10/03 03:21:20;;;;;;;32.95;16.42;;;;;;;;;;5079913;28;20027;-69
2023/10/03 03:23:56;;;;;;;33.38;16.52;;;;;;;;;;5080381;28;20025;-69
2023/10/03 03:26:29;;;;;;;36.60;16.65;;;;;;;;;;5061780;28;20031;-68
2023/10/03 03:28:55;;;;;;;30.17;15.57;;;;;;;;;;5079286;28;20028;-69
2023/10/03 03:31:32;;;;;;;30.55;15.60;;;;;;;;;;5079657;28;20063;-69
2023/10/03 03:34:00;;;;;;;33.03;15.90;;;;;;;;;;5079203;28;20095;-68
2023/10/03 03:36:29;;;;;;;28.92;15.48;;;;;;;;;;5079093;28;20052;-69
2023/10/03 03:38:56;;;;;;;34.17;16.83;;;;;;;;;;5079820;28;20028;-69
2023/10/03 03:41:23;;;;;;;26.60;14.93;;;;;;;;;;5059697;28;20048;-69
2023/10/03 03:43:49;;;;;;;33.17;16.35;;;;;;;;;;5080073;28;20047;-69
2023/10/03 03:46:15;;;;;;;34.55;15.27;;;;;;;;;;5079498;28;20047;-69
2023/10/03 03:48:41;;;;;;;31.02;15.40;;;;;;;;;;5079215;28;20035;-69
2023/10/03 03:51:11;;;;;;;29.83;14.93;;;;;;;;;;5079706;28;20039;-69
2023/10/03 03:53:37;;;;;;;31.50;14.93;;;;;;;;;;5079054;28;20509;-68
2023/10/03 03:56:05;;;;;;;31.63;15.23;;;;;;;;;;5078981;28;20024;-69
2023/10/03 03:58:31;;;;;;;31.45;16.05;;;;;;;;;;5078515;28;20024;-69
2023/10/03 04:01:00;;;;;;;29.17;15.82;;;;;;;;;;5079279;28;20028;-68
2023/10/03 04:03:29;;;;;;;30.63;15.52;;;;;;;;;;5078479;28;20031;-69
2023/10/03 04:05:57;;;;;;;29.52;15.10;;;;;;;;;;5076603;28;20131;-69
2023/10/03 04:08:23;;;;;;;28.33;14.27;;;;;;;;;;5058567;28;20040;-69
2023/10/03 04:10:49;;;;;;;30.17;14.52;;;;;;;;;;5076804;28;20052;-68
2023/10/03 04:13:16;;;;;;;29.70;15.50;;;;;;;;;;5078689;28;20494;-69
2023/10/03 04:15:44;;;;;;;30.08;15.50;;;;;;;;;;5077099;28;20024;-68
2023/10/03 04:18:11;;;;;;;29.42;15.80;;;;;;;;;;5059037;28;20031;-69
2023/10/03 04:20:40;;;;;;;27.98;14.77;;;;;;;;;;5076772;28;20506;-69
2023/10/03 04:23:08;;;;;;;30.23;14.93;;;;;;;;;;5077998;28;20028;-69
2023/10/03 04:25:34;;;;;;;28.10;15.45;;;;;;;;;;5076864;28;20960;-69
2023/10/03 04:28:01;;;;;;;28.40;14.38;;;;;;;;;;5078368;28;20036;-69
2023/10/03 04:30:27;;;;;;;31.60;15.32;;;;;;;;;;5078852;28;20032;-69
2023/10/03 04:32:55;;;;;;;29.63;14.43;;;;;;;;;;5078859;28;20043;-69
2023/10/03 04:35:22;;;;;;;29.13;15.00;;;;;;;;;;5077888;28;21199;-68
2023/10/03 04:37:52;;;;;;;29.65;16.50;;;;;;;;;;5078135;28;20463;-69
2023/10/03 04:40:24;;;;;;;30.98;14.95;;;;;;;;;;5078459;28;20027;-69
2023/10/03 04:42:50;;;;;;;28.00;13.63;;;;;;;;;;5078530;28;20079;-69
2023/10/03 04:45:19;;;;;;;33.75;15.68;;;;;;;;;;5079186;28;20470;-69
2023/10/03 04:47:46;;;;;;;32.97;16.10;;;;;;;;;;5077947;28;20032;-69
2023/10/03 04:50:16;;;;;;;31.92;14.68;;;;;;;;;;5079247;28;20031;-69
2023/10/03 04:52:42;;;;;;;29.83;15.13;;;;;;;;;;5077554;28;20092;-69
2023/10/03 04:55:08;;;;;;;27.95;15.52;;;;;;;;;;5077508;28;20066;-68
2023/10/03 04:57:34;;;;;;;29.27;14.65;;;;;;;;;;5078106;28;20113;-69
2023/10/03 05:00:00;;;;;;;28.05;14.80;;;;;;;;;;5077491;28;20043;-69
2023/10/03 05:02:28;;;;;;;31.10;14.82;;;;;;;;;;5077245;28;20119;-69
2023/10/03 05:04:55;;;;;;;27.95;14.73;;;;;;;;;;5078189;28;20214;-69
2023/10/03 05:07:23;;;;;;;27.73;14.73;;;;;;;;;;5077431;28;20096;-68
2023/10/03 05:09:50;;;;;;;31.80;14.90;;;;;;;;;;5077373;28;20046;-69
2023/10/03 05:12:16;;;;;;;26.02;13.15;;;;;;;;;;5076765;28;20063;-69
2023/10/03 05:14:42;;;;;;;31.00;14.45;;;;;;;;;;5077666;28;20115;-67
2023/10/03 05:17:08;;;;;;;27.83;14.00;;;;;;;;;;5077844;28;20078;-67
2023/10/03 05:19:36;;;;;;;26.35;12.38;;;;;;;;;;5060326;28;20035;-67
2023/10/03 05:22:03;;;;;;;27.92;12.77;;;;;;;;;;5074986;28;20028;-67
2023/10/03 05:24:31;;;;;;;31.80;13.90;;;;;;;;;;5056629;28;20031;-67
2023/10/03 05:26:58;;;;;;;24.45;12.13;;;;;;;;;;5077161;28;20024;-67
2023/10/03 05:29:26;;;;;;;28.98;13.80;;;;;;;;;;5077092;28;20086;-67
2023/10/03 05:31:52;;;;;;;28.75;13.60;;;;;;;;;;5077558;28;20112;-67
2023/10/03 05:34:20;;;;;;;35.67;14.13;;;;;;;;;;5076374;28;21716;-67
2023/10/03 05:36:46;;;;;;;26.88;13.68;;;;;;;;;;5076277;28;20031;-67
2023/10/03 05:39:15;;;;;;;31.05;14.32;;;;;;;;;;5076510;28;20036;-67
2023/10/03 05:41:41;;;;;;;27.48;14.18;;;;;;;;;;5077047;28;20032;-67
2023/10/03 05:44:13;;;;;;;34.75;14.38;;;;;;;;;;5077960;28;20043;-67
2023/10/03 05:46:40;;;;;;;32.80;14.18;;;;;;;;;;5076545;28;20023;-68
2023/10/03 05:49:06;;;;;;;35.28;15.35;;;;;;;;;;5076836;28;20055;-68
2023/10/03 05:51:35;;;;;;;29.20;16.23;;;;;;;;;;5076380;28;20032;-67
2023/10/03 05:54:04;;;;;;;31.00;13.85;;;;;;;;;;5077870;28;20031;-67
2023/10/03 05:56:30;;;;;;;33.15;14.57;;;;;;;;;;5077268;28;20031;-67
2023/10/03 05:58:59;;;;;;;33.20;15.05;;;;;;;;;;5076659;28;20042;-67
2023/10/03 06:01:25;;;;;;;35.90;15.32;;;;;;;;;;5058154;28;20027;-67
2023/10/03 06:03:51;;;;;;;27.88;14.80;;;;;;;;;;5076679;28;20550;-67
2023/10/03 06:06:17;;;;;;;34.17;15.82;;;;;;;;;;5077425;28;20046;-67
2023/10/03 06:08:48;;;;;;;31.20;14.77;;;;;;;;;;5076529;28;20376;-67
2023/10/03 06:11:14;;;;;;;33.00;15.02;;;;;;;;;;5076438;28;20039;-67
2023/10/03 06:13:44;;;;;;;29.55;15.35;;;;;;;;;;5076815;28;20035;-67
2023/10/03 06:16:12;;;;;;;38.70;14.90;;;;;;;;;;5076570;28;21830;-67
2023/10/03 06:18:40;;;;;;;27.70;14.82;;;;;;;;;;5074471;28;20085;-67
2023/10/03 06:21:07;;;;;;;28.88;14.93;;;;;;;;;;5076363;28;20105;-67
2023/10/03 06:23:33;;;;;;;27.80;12.95;;;;;;;;;;5058092;28;20354;-67
2023/10/03 06:25:59;;;;;;;29.15;13.57;;;;;;;;;;5076053;28;20031;-67
2023/10/03 06:28:26;;;;;;;28.52;13.57;;;;;;;;;;5074799;28;20812;-67
2023/10/03 06:30:52;;;;;;;26.92;13.02;;;;;;;;;;5078405;28;20027;-67
2023/10/03 06:33:18;;;;;;;30.90;13.32;;;;;;;;;;5078591;28;20080;-68
2023/10/03 06:35:44;;;;;;;23.42;12.48;;;;;;;;;;5079092;28;20062;-67
2023/10/03 06:38:11;;;;;;;27.27;12.32;;;;;;;;;;5078506;28;20134;-67
2023/10/03 06:40:37;;;;;;;28.90;13.57;;;;;;;;;;5078703;28;20055;-68
2023/10/03 06:43:03;;;;;;;29.20;12.70;;;;;;;;;;5079880;28;20035;-68
2023/10/03 06:45:29;;;;;;;27.45;12.20;;;;;;;;;;5081357;28;20024;-67
2023/10/03 06:47:55;;;;;;;25.23;12.13;;;;;;;;;;5081344;28;20032;-68
2023/10/03 06:50:23;;;;;;;24.98;11.05;;;;;;;;;;5080437;28;20036;-67
2023/10/03 06:52:50;;;;;;;30.85;11.27;;;;;;;;;;5080796;28;20035;-67
2023/10/03 06:55:16;;;;;;;30.58;10.30;;;;;;;;;;5079741;28;20154;-68
2023/10/03 06:57:42;;;;;;;23.88;9.82;;;;;;;;;;5081234;28;20574;-67
2023/10/03 07:00:13;;;;;;;27.45;10.00;;;;;;;;;;5080352;28;20737;-67
2023/10/03 07:02:39;;;;;;;20.17;8.95;;;;;;;;;;5081405;28;20036;-68
2023/10/03 07:05:07;;;;;;;21.65;8.73;;;;;;;;;;5076717;28;20042;-67
2023/10/03 07:07:33;;;;;;;24.15;8.63;;;;;;;;;;5080137;28;20378;-68
2023/10/03 07:09:59;;;;;;;18.42;8.48;;;;;;;;;;5079695;28;20661;-67
2023/10/03 07:12:25;;;;;;;21.52;8.30;;;;;;;;;;5079918;28;20066;-68
2023/10/03 07:14:52;;;;;;;18.98;8.35;;;;;;;;;;5078369;28;20028;-68
2023/10/03 07:17:18;;;;;;;21.05;8.68;;;;;;;;;;5079028;28;20479;-68
2023/10/03 07:19:48;;;;;;;20.55;8.98;;;;;;;;;;5077688;28;20069;-68
2023/10/03 07:22:14;;;;;;;21.92;8.30;;;;;;;;;;5078475;28;20153;-68
2023/10/03 07:24:41;;;;;;;26.05;9.82;;;;;;;;;;5073151;27;20033;-68
2023/10/03 07:27:07;;;;;;;24.42;9.80;;;;;;;;;;5067513;28;21229;-68
2023/10/03 07:29:42;;;;;;;32.25;7.95;;;;;;;;;;5070187;28;20437;-68
2023/10/03 07:32:12;;;;;;;21.45;8.02;;;;;;;;;;5071003;28;20032;-67
2023/10/03 07:34:42;;;;;;;23.23;8.18;;;;;;;;;;5051593;28;20496;-68
2023/10/03 07:37:09;;;;;;;20.70;6.10;;;;;;;;;;5070543;27;20249;-68
2023/10/03 07:39:35;;;;;;;21.15;7.10;;;;;;;;;;5070273;28;20504;-68
2023/10/03 07:42:01;;;;;;;22.30;6.70;;;;;;;;;;5071259;28;20035;-68
2023/10/03 07:44:27;;;;;;;19.45;6.03;;;;;;;;;;5070190;28;20035;-68
2023/10/03 07:46:54;;;;;;;19.15;6.57;;;;;;;;;;5071499;28;20725;-68
2023/10/03 07:49:20;;;;;;;21.42;6.65;;;;;;;;;;5071967;28;20039;-69
2023/10/03 07:51:46;;;;;;;16.40;5.50;;;;;;;;;;5070513;27;20217;-69
2023/10/03 07:54:14;;;;;;;17.08;4.18;;;;;;;;;;5069998;28;20159;-68
2023/10/03 07:56:43;;;;;;;13.77;4.03;;;;;;;;;;5072566;27;20031;-69
2023/10/03 07:59:10;;;;;;;11.70;3.92;;;;;;;;;;5071309;28;20073;-69
2023/10/03 08:01:38;;;;;;;11.38;3.83;;;;;;;;;;5071180;28;20024;-68
2023/10/03 08:04:09;;;;;;;12.55;3.25;;;;;;;;;;5052065;28;20138;-68
2023/10/03 08:06:36;;;;;;;14.00;3.17;;;;;;;;;;5071536;28;20136;-69
2023/10/03 08:09:03;;;;;;;11.25;3.28;;;;;;;;;;5069303;28;20466;-69
2023/10/03 08:11:32;;;;;;;10.25;2.78;;;;;;;;;;5070766;28;20083;-69
2023/10/03 08:14:11;;;;;;;12.00;2.55;;;;;;;;;;5071097;28;20055;-68
2023/10/03 08:16:39;;;;;;;12.55;2.92;;;;;;;;;;5070507;28;20031;-68
2023/10/03 08:19:08;;;;;;;11.80;2.65;;;;;;;;;;5071399;28;20059;-67
2023/10/03 08:21:34;;;;;;;9.98;2.70;;;;;;;;;;5071020;28;20038;-68
2023/10/03 08:24:09;;;;;;;9.10;2.25;;;;;;;;;;5069896;28;20027;-68
2023/10/03 08:26:36;;;;;;;8.48;2.22;;;;;;;;;;5070250;27;20032;-69
2023/10/03 08:29:05;;;;;;;7.85;2.13;;;;;;;;;;5070771;28;20125;-68
2023/10/03 08:31:32;;;;;;;9.73;1.80;;;;;;;;;;5070636;28;20023;-68
2023/10/03 08:33:58;;;;;;;8.57;1.83;;;;;;;;;;5052069;28;20036;-68
2023/10/03 08:36:29;;;;;;;6.75;1.75;;;;;;;;;;5070514;28;20452;-68
2023/10/03 08:39:12;;;;;;;10.73;1.63;;;;;;;;;;5069426;28;20020;-68
2023/10/03 08:41:48;;;;;;;9.60;1.58;;;;;;;;;;5069433;28;20042;-68
2023/10/03 08:44:14;;;;;;;11.23;1.67;;;;;;;;;;5048392;28;20036;-69
2023/10/03 08:46:45;;;;;;;12.13;2.08;;;;;;;;;;5068207;28;20061;-68
2023/10/03 08:49:12;;;;;;;14.13;2.17;;;;;;;;;;5069328;28;21458;-68
2023/10/03 08:51:43;;;;;;;8.48;1.73;;;;;;;;;;5069016;28;20050;-68
2023/10/03 08:54:10;;;;;;;8.93;1.48;;;;;;;;;;5068184;28;20885;-69
2023/10/03 08:56:38;;;;;;;8.65;1.40;;;;;;;;;;5069795;28;20032;-68
2023/10/03 08:59:08;;;;;;;5.78;1.10;;;;;;;;;;5070646;28;20695;-68
2023/10/03 09:01:34;;;;;;;7.05;1.10;;;;;;;;;;5070439;28;20031;-68
2023/10/03 09:04:05;;;;;;;5.00;0.77;;;;;;;;;;5070589;28;20063;-68
2023/10/03 09:06:38;;;;;;;9.20;1.38;;;;;;;;;;5073663;28;20016;-69
2023/10/03 09:09:08;;;;;;;7.35;1.00;;;;;;;;;;5070871;28;20796;-68
2023/10/03 09:11:37;;;;;;;6.03;0.98;;;;;;;;;;5067094;28;20031;-68
2023/10/03 09:14:07;;;;;;;5.28;0.98;;;;;;;;;;5067875;28;20055;-68
2023/10/03 09:16:38;;;;;;;8.43;1.08;;;;;;;;;;5067580;27;20082;-69
2023/10/03 09:19:05;;;;;;;7.82;1.15;;;;;;;;;;5067202;27;20028;-68
2023/10/03 09:21:33;;;;;;;6.70;1.00;;;;;;;;;;5067337;27;20023;-69
2023/10/03 09:24:12;;;;;;;6.32;0.90;;;;;;;;;;5066584;28;20066;-69
2023/10/03 09:26:45;;;;;;;4.25;0.70;;;;;;;;;;5066400;28;20064;-68
2023/10/03 09:29:11;;;;;;;5.18;0.88;;;;;;;;;;5066580;28;20055;-68
2023/10/03 09:31:37;;;;;;;4.07;0.95;;;;;;;;;;5067194;28;21128;-68
2023/10/03 09:34:03;;;;;;;2.88;0.68;;;;;;;;;;5066861;28;20031;-68
2023/10/03 09:36:35;;;;;;;5.35;0.90;;;;;;;;;;5067219;28;20032;-68
2023/10/03 09:39:02;;;;;;;6.45;0.95;;;;;;;;;;5068257;28;21730;-68
2023/10/03 09:41:29;;;;;;;3.88;0.52;;;;;;;;;;5067764;28;20024;-68
2023/10/03 09:43:55;;;;;;;4.50;0.75;;;;;;;;;;5068270;28;20039;-68
2023/10/03 09:46:38;;;;;;;5.53;0.80;;;;;;;;;;5066249;28;20040;-68
2023/10/03 09:49:08;;;;;;;4.32;0.80;;;;;;;;;;5067284;28;21059;-68
2023/10/03 09:51:47;;;;;;;2.60;0.50;;;;;;;;;;5067253;28;20046;-68
2023/10/03 09:54:30;;;;;;;1.80;0.35;;;;;;;;;;5067211;28;20031;-68
2023/10/03 09:56:57;;;;;;;2.58;0.40;;;;;;;;;;5068682;28;20051;-68
2023/10/03 09:59:24;;;;;;;0.98;0.10;;;;;;;;;;5066998;28;20739;-68
2023/10/03 10:01:55;;;;;;;3.17;0.50;;;;;;;;;;5067129;27;20032;-68
2023/10/03 10:04:21;;;;;;;2.80;0.55;;;;;;;;;;5065691;28;20023;-68
2023/10/03 10:06:58;;;;;;;1.63;0.40;;;;;;;;;;5066890;28;20032;-68
2023/10/03 10:09:29;;;;;;;3.53;0.65;;;;;;;;;;5066457;28;20437;-67
2023/10/03 10:12:21;;;;;;;3.97;0.70;;;;;;;;;;5066179;28;20035;-67
2023/10/03 10:15:14;;;;;;;2.55;0.60;;;;;;;;;;5066892;28;20028;-67
2023/10/03 10:17:45;;;;;;;2.13;0.50;;;;;;;;;;5065891;28;20032;-68
2023/10/03 10:20:12;;;;;;;6.32;0.85;;;;;;;;;;5066495;28;20146;-68
2023/10/03 10:22:58;;;;;;;6.38;0.85;;;;;;;;;;5046140;28;20141;-67
2023/10/03 10:25:27;;;;;;;6.93;0.88;;;;;;;;;;5066006;28;20063;-67
2023/10/03 10:28:06;;;;;;;7.30;1.30;;;;;;;;;;5066554;28;20036;-67
2023/10/03 10:30:33;;;;;;;10.20;2.20;;;;;;;;;;5066471;28;20032;-67
2023/10/03 10:33:23;;;;;;;7.82;1.80;;;;;;;;;;5067184;28;20039;-67
2023/10/03 10:35:54;;;;;;;6.85;1.75;;;;;;;;;;5066971;28;20799;-68
2023/10/03 10:38:41;;;;;;;6.05;1.15;;;;;;;;;;5065793;28;20036;-67
2023/10/03 10:41:36;;;;;;;8.00;1.52;;;;;;;;;;5051978;28;20719;-67
2023/10/03 10:44:09;;;;;;;6.32;1.38;;;;;;;;;;5067422;28;20058;-67
2023/10/03 10:46:46;;;;;;;6.90;1.80;;;;;;;;;;5065314;28;20039;-67
2023/10/03 10:49:44;;;;;;;4.35;1.02;;;;;;;;;;5066486;28;20024;-67
2023/10/03 10:52:10;;;;;;;5.07;1.10;;;;;;;;;;5043985;28;20040;-67
2023/10/03 10:54:39;;;;;;;4.88;1.17;;;;;;;;;;5065682;28;20028;-67
2023/10/03 10:57:06;;;;;;;10.48;2.10;;;;;;;;;;5053077;28;20024;-67
2023/10/03 10:59:35;;;;;;;6.15;1.58;;;;;;;;;;5065012;28;20027;-68
2023/10/03 11:02:02;;;;;;;7.35;2.17;;;;;;;;;;5064565;28;20040;-67
2023/10/03 11:04:36;;;;;;;7.97;2.25;;;;;;;;;;5063447;28;20023;-67
2023/10/03 11:07:02;;;;;;;9.35;1.95;;;;;;;;;;5063651;28;20137;-67
2023/10/03 11:09:29;;;;;;;8.98;2.88;;;;;;;;;;5064315;28;21530;-67
2023/10/03 11:11:56;;;;;;;10.43;2.78;;;;;;;;;;5066103;28;20089;-67
2023/10/03 11:14:26;;;;;;;8.82;2.15;;;;;;;;;;5066733;28;20049;-67
2023/10/03 11:16:52;;;;;;;7.45;2.33;;;;;;;;;;5067898;28;20032;-67
2023/10/03 11:19:18;;;;;;;8.50;3.42;;;;;;;;;;5070485;28;20059;-67
2023/10/03 11:21:45;;;;;;;6.93;2.60;;;;;;;;;;5069857;28;20081;-67
2023/10/03 11:24:15;;;;;;;9.75;2.20;;;;;;;;;;5069266;28;20439;-67
2023/10/03 11:26:45;;;;;;;10.27;2.40;;;;;;;;;;5069661;28;20107;-67
2023/10/03 11:29:12;;;;;;;8.93;2.08;;;;;;;;;;5069699;28;20895;-67
2023/10/03 11:31:40;;;;;;;9.85;2.33;;;;;;;;;;5069861;28;20684;-67
2023/10/03 11:34:07;;;;;;;6.25;2.08;;;;;;;;;;5069701;27;20028;-67
2023/10/03 11:36:46;;;;;;;6.47;2.33;;;;;;;;;;5068699;28;20027;-67
2023/10/03 11:39:23;;;;;;;8.32;2.80;;;;;;;;;;5068901;28;20081;-67
2023/10/03 11:41:49;;;;;;;8.23;2.47;;;;;;;;;;5068617;28;20558;-67
2023/10/03 11:44:22;;;;;;;9.55;2.35;;;;;;;;;;5069151;28;20032;-67
2023/10/03 11:46:49;;;;;;;9.82;2.90;;;;;;;;;;5069261;28;20219;-67
2023/10/03 11:49:15;;;;;;;9.18;3.33;;;;;;;;;;5050051;28;20040;-67
2023/10/03 11:51:45;;;;;;;10.48;2.85;;;;;;;;;;5068173;28;20130;-67
2023/10/03 11:54:14;;;;;;;10.93;3.67;;;;;;;;;;5068979;27;20031;-67
2023/10/03 11:56:40;;;;;;;7.10;2.53;;;;;;;;;;5068639;28;20038;-67
2023/10/03 11:59:07;;;;;;;7.82;2.22;;;;;;;;;;5068591;28;20433;-67
2023/10/03 12:01:33;;;;;;;11.05;2.60;;;;;;;;;;5068599;28;20036;-67
2023/10/03 12:03:59;;;;;;;7.38;2.30;;;;;;;;;;5069579;27;20109;-67
2023/10/03 12:06:25;;;;;;;7.50;2.72;;;;;;;;;;5068587;28;20161;-67
2023/10/03 12:08:52;;;;;;;12.68;3.40;;;;;;;;;;5067405;28;20028;-68
2023/10/03 12:11:20;;;;;;;13.20;3.42;;;;;;;;;;5067656;28;20045;-67
2023/10/03 12:13:46;;;;;;;10.70;2.83;;;;;;;;;;5068230;27;20711;-67
2023/10/03 12:16:12;;;;;;;8.25;2.70;;;;;;;;;;5067015;28;20050;-67
2023/10/03 12:18:38;;;;;;;9.57;2.20;;;;;;;;;;5069062;28;20117;-67
2023/10/03 12:21:04;;;;;;;7.03;2.05;;;;;;;;;;5066397;28;20482;-67
2023/10/03 12:23:30;;;;;;;9.70;2.58;;;;;;;;;;5067289;28;20062;-67
2023/10/03 12:25:58;;;;;;;10.15;2.70;;;;;;;;;;5067421;27;20032;-67
2023/10/03 12:28:24;;;;;;;10.25;2.17;;;;;;;;;;5067963;28;20178;-67
2023/10/03 12:30:51;;;;;;;8.15;2.40;;;;;;;;;;5068500;28;20392;-67
2023/10/03 12:33:19;;;;;;;8.05;2.15;;;;;;;;;;5067989;28;20035;-67
2023/10/03 12:35:45;;;;;;;9.00;2.10;;;;;;;;;;5068486;28;20032;-68
2023/10/03 12:38:12;;;;;;;10.10;2.30;;;;;;;;;;5048587;28;20032;-67
2023/10/03 12:40:38;;;;;;;10.48;2.50;;;;;;;;;;5067718;28;20566;-67
2023/10/03 12:43:04;;;;;;;11.27;2.90;;;;;;;;;;5067870;28;20475;-67
2023/10/03 12:45:30;;;;;;;9.38;1.83;;;;;;;;;;5067445;28;20027;-67
2023/10/03 12:47:58;;;;;;;8.68;2.10;;;;;;;;;;5049414;28;20027;-67
2023/10/03 12:50:25;;;;;;;8.63;2.42;;;;;;;;;;5047937;28;20057;-67
2023/10/03 12:53:05;;;;;;;6.65;1.95;;;;;;;;;;5067711;28;20031;-67
2023/10/03 12:55:32;;;;;;;12.02;2.20;;;;;;;;;;5066428;28;20032;-67
2023/10/03 12:57:59;;;;;;;8.85;2.05;;;;;;;;;;5068080;28;20169;-67
2023/10/03 13:00:28;;;;;;;7.97;2.53;;;;;;;;;;5067025;28;20032;-67
2023/10/03 13:02:56;;;;;;;10.85;2.45;;;;;;;;;;5068062;28;20024;-67
2023/10/03 13:05:23;;;;;;;9.98;2.22;;;;;;;;;;5068404;28;20027;-67
2023/10/03 13:07:53;;;;;;;12.18;2.25;;;;;;;;;;5066563;28;20060;-68
2023/10/03 13:10:24;;;;;;;8.80;2.00;;;;;;;;;;5064938;28;20048;-67
2023/10/03 13:12:54;;;;;;;8.85;2.28;;;;;;;;;;5063359;28;20050;-67
2023/10/03 13:15:20;;;;;;;10.60;2.30;;;;;;;;;;5064044;28;20039;-67
2023/10/03 13:17:52;;;;;;;9.93;2.33;;;;;;;;;;5065203;28;20127;-68
2023/10/03 13:20:18;;;;;;;6.82;1.98;;;;;;;;;;5064562;28;20144;-67
2023/10/03 13:22:45;;;;;;;11.05;2.40;;;;;;;;;;5066615;28;20046;-67
2023/10/03 13:25:12;;;;;;;8.68;2.20;;;;;;;;;;5067987;28;20027;-67
2023/10/03 13:27:38;;;;;;;9.55;1.88;;;;;;;;;;5067514;28;20105;-67
2023/10/03 13:30:10;;;;;;;7.70;2.05;;;;;;;;;;5068077;28;20032;-67
2023/10/03 13:32:37;;;;;;;10.80;2.10;;;;;;;;;;5049270;28;20043;-67
2023/10/03 13:35:04;;;;;;;15.02;2.22;;;;;;;;;;5066964;28;20055;-67
2023/10/03 13:37:30;;;;;;;8.60;2.58;;;;;;;;;;5066086;28;20746;-67
2023/10/03 13:39:56;;;;;;;8.68;2.03;;;;;;;;;;5065975;28;20112;-67
2023/10/03 13:42:22;;;;;;;5.88;1.60;;;;;;;;;;5068165;28;20055;-67
2023/10/03 13:44:53;;;;;;;14.30;2.67;;;;;;;;;;5067001;28;20085;-67
2023/10/03 13:47:19;;;;;;;11.75;2.65;;;;;;;;;;5066983;28;20032;-67
2023/10/03 13:49:45;;;;;;;7.50;2.03;;;;;;;;;;5067146;28;20032;-67
2023/10/03 13:52:13;;;;;;;8.63;2.45;;;;;;;;;;5065739;28;20039;-67
2023/10/03 13:54:40;;;;;;;9.05;2.25;;;;;;;;;;5066222;28;20055;-66
2023/10/03 13:57:06;;;;;;;10.57;1.98;;;;;;;;;;5067358;28;20124;-67
2023/10/03 13:59:33;;;;;;;11.23;2.53;;;;;;;;;;5066851;28;20036;-67
2023/10/03 14:02:00;;;;;;;7.85;1.77;;;;;;;;;;5066005;28;20032;-67
2023/10/03 14:04:27;;;;;;;7.93;1.83;;;;;;;;;;5066515;28;20157;-67
2023/10/03 14:06:54;;;;;;;9.73;2.00;;;;;;;;;;5066330;28;20490;-68
2023/10/03 14:09:26;;;;;;;11.07;2.17;;;;;;;;;;5066509;28;20081;-67
2023/10/03 14:11:54;;;;;;;7.93;1.77;;;;;;;;;;5066737;28;20035;-68
2023/10/03 14:14:20;;;;;;;9.38;1.70;;;;;;;;;;5066397;28;20114;-68
2023/10/03 14:16:46;;;;;;;7.13;1.90;;;;;;;;;;5066909;28;20028;-68
2023/10/03 14:19:12;;;;;;;5.10;1.52;;;;;;;;;;5066112;28;20123;-68
2023/10/03 14:21:38;;;;;;;9.93;2.17;;;;;;;;;;5065687;28;20154;-68
2023/10/03 14:24:04;;;;;;;10.85;2.00;;;;;;;;;;5065904;28;20070;-68
2023/10/03 14:26:30;;;;;;;9.05;2.25;;;;;;;;;;5066778;28;20046;-68
2023/10/03 14:28:56;;;;;;;8.35;1.85;;;;;;;;;;5066673;28;20059;-68
2023/10/03 14:31:22;;;;;;;9.35;2.20;;;;;;;;;;5068010;28;20105;-68
2023/10/03 14:33:48;;;;;;;11.15;1.70;;;;;;;;;;5064784;28;20036;-68
2023/10/03 14:36:15;;;;;;;10.65;2.15;;;;;;;;;;5065062;28;20048;-68
2023/10/03 14:38:41;;;;;;;9.88;1.95;;;;;;;;;;5065575;28;20040;-67